sensor_id;sensor_type;location;lat;lon;timestamp;P1;durP1;ratioP1;P2;durP2;ratioP2
62401;SDS011;48440;51.224;22.506;2022-09-27T00:00:42;18.77;;;11.77;;
62401;SDS011;48440;51.224;22.506;2022-09-27T00:03:09;16.92;;;11.90;;
62401;SDS011;48440;51.224;22.506;2022-09-27T00:05:35;20.88;;;13.10;;
62401;SDS011;48440;51.224;22.506;2022-09-27T00:08:01;21.77;;;12.25;;
62401;SDS011;48440;51.224;22.506;2022-09-27T00:10:27;20.08;;;12.20;;
62401;SDS011;48440;51.224;22.506;2022-09-27T00:12:53;17.58;;;12.32;;
62401;SDS011;48440;51.224;22.506;2022-09-27T00:15:18;17.77;;;12.07;;
62401;SDS011;48440;51.224;22.506;2022-09-27T00:17:45;19.23;;;13.10;;
62401;SDS011;48440;51.224;22.506;2022-09-27T00:20:10;20.90;;;12.65;;
62401;SDS011;48440;51.224;22.506;2022-09-27T00:22:36;16.30;;;11.90;;
62401;SDS011;48440;51.224;22.506;2022-09-27T00:25:02;45.97;;;13.88;;
62401;SDS011;48440;51.224;22.506;2022-09-27T00:27:31;29.13;;;12.25;;
62401;SDS011;48440;51.224;22.506;2022-09-27T00:29:57;19.75;;;11.32;;
62401;SDS011;48440;51.224;22.506;2022-09-27T00:32:22;35.33;;;11.45;;
62401;SDS011;48440;51.224;22.506;2022-09-27T00:34:47;17.33;;;12.00;;
62401;SDS011;48440;51.224;22.506;2022-09-27T00:37:13;18.35;;;11.57;;
62401;SDS011;48440;51.224;22.506;2022-09-27T00:39:38;16.40;;;11.05;;
62401;SDS011;48440;51.224;22.506;2022-09-27T00:42:05;17.80;;;11.07;;
62401;SDS011;48440;51.224;22.506;2022-09-27T00:47:04;17.35;;;10.90;;
62401;SDS011;48440;51.224;22.506;2022-09-27T00:49:46;14.18;;;10.55;;
62401;SDS011;48440;51.224;22.506;2022-09-27T00:52:26;14.50;;;9.65;;
62401;SDS011;48440;51.224;22.506;2022-09-27T00:55:01;13.90;;;9.40;;
62401;SDS011;48440;51.224;22.506;2022-09-27T00:57:30;17.48;;;9.38;;
62401;SDS011;48440;51.224;22.506;2022-09-27T01:00:14;20.33;;;10.70;;
62401;SDS011;48440;51.224;22.506;2022-09-27T01:02:42;14.32;;;9.60;;
62401;SDS011;48440;51.224;22.506;2022-09-27T01:05:11;20.55;;;9.60;;
62401;SDS011;48440;51.224;22.506;2022-09-27T01:07:40;12.45;;;9.38;;
62401;SDS011;48440;51.224;22.506;2022-09-27T01:10:06;17.73;;;9.30;;
62401;SDS011;48440;51.224;22.506;2022-09-27T01:15:39;12.75;;;8.70;;
62401;SDS011;48440;51.224;22.506;2022-09-27T01:27:02;11.48;;;7.22;;
62401;SDS011;48440;51.224;22.506;2022-09-27T01:32:28;12.88;;;7.20;;
62401;SDS011;48440;51.224;22.506;2022-09-27T01:35:52;9.25;;;7.10;;
62401;SDS011;48440;51.224;22.506;2022-09-27T01:44:05;9.50;;;7.60;;
62401;SDS011;48440;51.224;22.506;2022-09-27T01:46:07;10.52;;;7.75;;
62401;SDS011;48440;51.224;22.506;2022-09-27T01:48:46;10.50;;;7.57;;
62401;SDS011;48440;51.224;22.506;2022-09-27T01:51:18;9.55;;;7.68;;
62401;SDS011;48440;51.224;22.506;2022-09-27T01:53:51;8.25;;;6.90;;
62401;SDS011;48440;51.224;22.506;2022-09-27T01:56:35;9.82;;;7.22;;
62401;SDS011;48440;51.224;22.506;2022-09-27T02:01:33;12.85;;;8.00;;
62401;SDS011;48440;51.224;22.506;2022-09-27T02:04:02;10.07;;;7.55;;
62401;SDS011;48440;51.224;22.506;2022-09-27T02:06:30;10.90;;;7.32;;
62401;SDS011;48440;51.224;22.506;2022-09-27T02:09:12;9.07;;;7.03;;
62401;SDS011;48440;51.224;22.506;2022-09-27T02:11:44;11.35;;;7.50;;
62401;SDS011;48440;51.224;22.506;2022-09-27T02:14:19;9.57;;;7.30;;
62401;SDS011;48440;51.224;22.506;2022-09-27T02:16:58;9.15;;;7.15;;
62401;SDS011;48440;51.224;22.506;2022-09-27T02:22:16;9.00;;;7.05;;
62401;SDS011;48440;51.224;22.506;2022-09-27T02:25:01;8.05;;;6.72;;
62401;SDS011;48440;51.224;22.506;2022-09-27T02:27:33;9.73;;;7.82;;
62401;SDS011;48440;51.224;22.506;2022-09-27T02:30:06;9.55;;;8.05;;
62401;SDS011;48440;51.224;22.506;2022-09-27T02:32:37;8.18;;;7.10;;
62401;SDS011;48440;51.224;22.506;2022-09-27T02:35:08;9.13;;;6.97;;
62401;SDS011;48440;51.224;22.506;2022-09-27T02:37:38;11.43;;;6.75;;
62401;SDS011;48440;51.224;22.506;2022-09-27T02:40:04;9.63;;;7.43;;
62401;SDS011;48440;51.224;22.506;2022-09-27T02:42:30;8.48;;;7.20;;
62401;SDS011;48440;51.224;22.506;2022-09-27T02:44:57;7.45;;;6.35;;
62401;SDS011;48440;51.224;22.506;2022-09-27T03:00:12;10.98;;;6.80;;
62401;SDS011;48440;51.224;22.506;2022-09-27T03:02:58;8.70;;;6.30;;
62401;SDS011;48440;51.224;22.506;2022-09-27T03:05:44;6.93;;;5.90;;
62401;SDS011;48440;51.224;22.506;2022-09-27T03:08:31;6.80;;;5.57;;
62401;SDS011;48440;51.224;22.506;2022-09-27T03:10:57;6.95;;;5.82;;
62401;SDS011;48440;51.224;22.506;2022-09-27T03:13:23;7.38;;;5.95;;
62401;SDS011;48440;51.224;22.506;2022-09-27T03:15:48;7.25;;;5.75;;
62401;SDS011;48440;51.224;22.506;2022-09-27T03:18:14;6.75;;;5.80;;
62401;SDS011;48440;51.224;22.506;2022-09-27T03:20:39;14.52;;;6.05;;
62401;SDS011;48440;51.224;22.506;2022-09-27T03:23:05;7.57;;;6.40;;
62401;SDS011;48440;51.224;22.506;2022-09-27T03:25:30;8.30;;;6.22;;
62401;SDS011;48440;51.224;22.506;2022-09-27T03:27:56;17.88;;;6.22;;
62401;SDS011;48440;51.224;22.506;2022-09-27T03:30:21;6.53;;;5.47;;
62401;SDS011;48440;51.224;22.506;2022-09-27T03:32:47;7.40;;;6.18;;
62401;SDS011;48440;51.224;22.506;2022-09-27T03:35:12;7.57;;;6.25;;
62401;SDS011;48440;51.224;22.506;2022-09-27T03:37:39;8.40;;;6.30;;
62401;SDS011;48440;51.224;22.506;2022-09-27T03:40:05;9.95;;;6.78;;
62401;SDS011;48440;51.224;22.506;2022-09-27T03:42:31;8.98;;;7.15;;
62401;SDS011;48440;51.224;22.506;2022-09-27T03:44:57;8.15;;;6.68;;
62401;SDS011;48440;51.224;22.506;2022-09-27T03:47:23;7.93;;;6.82;;
62401;SDS011;48440;51.224;22.506;2022-09-27T03:49:48;10.95;;;7.50;;
62401;SDS011;48440;51.224;22.506;2022-09-27T03:52:14;8.48;;;6.90;;
62401;SDS011;48440;51.224;22.506;2022-09-27T03:54:40;8.55;;;7.40;;
62401;SDS011;48440;51.224;22.506;2022-09-27T03:57:06;8.07;;;7.13;;
62401;SDS011;48440;51.224;22.506;2022-09-27T03:59:32;10.30;;;8.18;;
62401;SDS011;48440;51.224;22.506;2022-09-27T04:01:58;10.32;;;7.82;;
62401;SDS011;48440;51.224;22.506;2022-09-27T04:04:23;10.70;;;7.97;;
62401;SDS011;48440;51.224;22.506;2022-09-27T04:06:49;11.48;;;8.35;;
62401;SDS011;48440;51.224;22.506;2022-09-27T04:09:14;11.75;;;8.48;;
62401;SDS011;48440;51.224;22.506;2022-09-27T04:11:40;11.90;;;8.05;;
62401;SDS011;48440;51.224;22.506;2022-09-27T04:14:06;10.73;;;8.30;;
62401;SDS011;48440;51.224;22.506;2022-09-27T04:16:33;11.05;;;8.10;;
62401;SDS011;48440;51.224;22.506;2022-09-27T04:18:59;11.45;;;9.10;;
62401;SDS011;48440;51.224;22.506;2022-09-27T04:21:26;13.00;;;10.15;;
62401;SDS011;48440;51.224;22.506;2022-09-27T04:23:51;14.73;;;9.57;;
62401;SDS011;48440;51.224;22.506;2022-09-27T04:26:17;11.10;;;8.85;;
62401;SDS011;48440;51.224;22.506;2022-09-27T04:28:42;11.48;;;8.63;;
62401;SDS011;48440;51.224;22.506;2022-09-27T04:31:08;12.27;;;9.18;;
62401;SDS011;48440;51.224;22.506;2022-09-27T04:33:34;13.68;;;9.07;;
62401;SDS011;48440;51.224;22.506;2022-09-27T04:35:59;12.85;;;9.10;;
62401;SDS011;48440;51.224;22.506;2022-09-27T04:38:44;14.50;;;9.88;;
62401;SDS011;48440;51.224;22.506;2022-09-27T04:41:09;14.15;;;10.15;;
62401;SDS011;48440;51.224;22.506;2022-09-27T04:43:35;14.27;;;9.60;;
62401;SDS011;48440;51.224;22.506;2022-09-27T04:46:00;15.48;;;10.70;;
62401;SDS011;48440;51.224;22.506;2022-09-27T04:48:26;14.50;;;9.75;;
62401;SDS011;48440;51.224;22.506;2022-09-27T04:50:58;15.30;;;10.65;;
62401;SDS011;48440;51.224;22.506;2022-09-27T04:53:26;13.95;;;10.20;;
62401;SDS011;48440;51.224;22.506;2022-09-27T04:55:53;13.73;;;10.18;;
62401;SDS011;48440;51.224;22.506;2022-09-27T04:58:23;14.32;;;9.77;;
62401;SDS011;48440;51.224;22.506;2022-09-27T05:00:49;16.17;;;10.10;;
62401;SDS011;48440;51.224;22.506;2022-09-27T05:03:19;13.25;;;10.27;;
62401;SDS011;48440;51.224;22.506;2022-09-27T05:05:46;11.90;;;9.25;;
62401;SDS011;48440;51.224;22.506;2022-09-27T05:08:11;14.52;;;9.95;;
62401;SDS011;48440;51.224;22.506;2022-09-27T05:10:37;11.57;;;9.27;;
62401;SDS011;48440;51.224;22.506;2022-09-27T05:13:03;12.55;;;9.90;;
62401;SDS011;48440;51.224;22.506;2022-09-27T05:15:28;14.30;;;10.00;;
62401;SDS011;48440;51.224;22.506;2022-09-27T05:17:54;14.35;;;9.77;;
62401;SDS011;48440;51.224;22.506;2022-09-27T05:20:20;14.57;;;10.07;;
62401;SDS011;48440;51.224;22.506;2022-09-27T05:22:46;14.68;;;10.43;;
62401;SDS011;48440;51.224;22.506;2022-09-27T05:25:12;12.80;;;9.93;;
62401;SDS011;48440;51.224;22.506;2022-09-27T05:27:37;15.32;;;10.30;;
62401;SDS011;48440;51.224;22.506;2022-09-27T05:30:03;14.18;;;10.02;;
62401;SDS011;48440;51.224;22.506;2022-09-27T05:32:30;14.60;;;10.65;;
62401;SDS011;48440;51.224;22.506;2022-09-27T05:34:55;15.55;;;10.90;;
62401;SDS011;48440;51.224;22.506;2022-09-27T05:37:21;12.93;;;10.00;;
62401;SDS011;48440;51.224;22.506;2022-09-27T05:39:47;12.25;;;9.88;;
62401;SDS011;48440;51.224;22.506;2022-09-27T05:42:14;14.02;;;9.73;;
62401;SDS011;48440;51.224;22.506;2022-09-27T05:44:39;13.15;;;9.43;;
62401;SDS011;48440;51.224;22.506;2022-09-27T05:47:06;11.98;;;9.75;;
62401;SDS011;48440;51.224;22.506;2022-09-27T05:49:32;12.43;;;9.32;;
62401;SDS011;48440;51.224;22.506;2022-09-27T05:51:58;12.48;;;8.50;;
62401;SDS011;48440;51.224;22.506;2022-09-27T05:54:24;11.95;;;7.80;;
62401;SDS011;48440;51.224;22.506;2022-09-27T05:56:53;10.23;;;7.88;;
62401;SDS011;48440;51.224;22.506;2022-09-27T05:59:22;9.75;;;7.63;;
62401;SDS011;48440;51.224;22.506;2022-09-27T06:01:48;9.43;;;7.38;;
62401;SDS011;48440;51.224;22.506;2022-09-27T06:04:15;8.15;;;6.50;;
62401;SDS011;48440;51.224;22.506;2022-09-27T06:06:41;7.45;;;6.35;;
62401;SDS011;48440;51.224;22.506;2022-09-27T06:09:10;6.80;;;6.10;;
62401;SDS011;48440;51.224;22.506;2022-09-27T06:11:37;8.60;;;6.78;;
62401;SDS011;48440;51.224;22.506;2022-09-27T06:14:02;10.80;;;7.15;;
62401;SDS011;48440;51.224;22.506;2022-09-27T06:16:29;8.35;;;7.18;;
62401;SDS011;48440;51.224;22.506;2022-09-27T06:18:54;8.63;;;7.10;;
62401;SDS011;48440;51.224;22.506;2022-09-27T06:21:20;9.38;;;8.13;;
62401;SDS011;48440;51.224;22.506;2022-09-27T06:23:46;8.38;;;6.68;;
62401;SDS011;48440;51.224;22.506;2022-09-27T06:26:12;7.60;;;6.32;;
62401;SDS011;48440;51.224;22.506;2022-09-27T06:28:38;8.15;;;5.90;;
62401;SDS011;48440;51.224;22.506;2022-09-27T06:31:04;7.13;;;6.32;;
62401;SDS011;48440;51.224;22.506;2022-09-27T06:33:32;8.55;;;6.30;;
62401;SDS011;48440;51.224;22.506;2022-09-27T06:36:00;6.90;;;6.00;;
62401;SDS011;48440;51.224;22.506;2022-09-27T06:38:26;7.95;;;5.82;;
62401;SDS011;48440;51.224;22.506;2022-09-27T06:40:51;7.90;;;6.40;;
62401;SDS011;48440;51.224;22.506;2022-09-27T06:43:18;7.47;;;5.95;;
62401;SDS011;48440;51.224;22.506;2022-09-27T06:45:45;7.97;;;6.45;;
62401;SDS011;48440;51.224;22.506;2022-09-27T06:48:11;8.93;;;6.80;;
62401;SDS011;48440;51.224;22.506;2022-09-27T06:50:39;7.05;;;5.97;;
62401;SDS011;48440;51.224;22.506;2022-09-27T06:53:08;7.40;;;6.07;;
62401;SDS011;48440;51.224;22.506;2022-09-27T06:55:36;7.60;;;6.03;;
62401;SDS011;48440;51.224;22.506;2022-09-27T06:58:03;9.63;;;6.97;;
62401;SDS011;48440;51.224;22.506;2022-09-27T07:00:48;8.90;;;7.50;;
62401;SDS011;48440;51.224;22.506;2022-09-27T07:03:15;10.43;;;7.05;;
62401;SDS011;48440;51.224;22.506;2022-09-27T07:05:41;10.85;;;7.85;;
62401;SDS011;48440;51.224;22.506;2022-09-27T07:08:08;11.02;;;7.85;;
62401;SDS011;48440;51.224;22.506;2022-09-27T07:10:37;10.48;;;7.85;;
62401;SDS011;48440;51.224;22.506;2022-09-27T07:13:07;14.68;;;9.52;;
62401;SDS011;48440;51.224;22.506;2022-09-27T07:15:34;12.90;;;9.57;;
62401;SDS011;48440;51.224;22.506;2022-09-27T07:18:01;16.23;;;10.73;;
62401;SDS011;48440;51.224;22.506;2022-09-27T07:20:28;16.33;;;10.55;;
62401;SDS011;48440;51.224;22.506;2022-09-27T07:22:54;13.23;;;9.65;;
62401;SDS011;48440;51.224;22.506;2022-09-27T07:25:20;15.02;;;10.50;;
62401;SDS011;48440;51.224;22.506;2022-09-27T07:27:46;12.98;;;10.50;;
62401;SDS011;48440;51.224;22.506;2022-09-27T07:30:12;14.63;;;11.15;;
62401;SDS011;48440;51.224;22.506;2022-09-27T07:32:38;14.43;;;10.93;;
62401;SDS011;48440;51.224;22.506;2022-09-27T07:35:05;12.57;;;9.70;;
62401;SDS011;48440;51.224;22.506;2022-09-27T07:37:35;14.75;;;9.80;;
62401;SDS011;48440;51.224;22.506;2022-09-27T07:40:02;13.15;;;9.68;;
62401;SDS011;48440;51.224;22.506;2022-09-27T07:42:31;12.30;;;9.70;;
62401;SDS011;48440;51.224;22.506;2022-09-27T07:44:57;13.45;;;10.10;;
62401;SDS011;48440;51.224;22.506;2022-09-27T07:47:24;12.88;;;10.60;;
62401;SDS011;48440;51.224;22.506;2022-09-27T07:49:50;12.63;;;10.40;;
62401;SDS011;48440;51.224;22.506;2022-09-27T07:52:20;13.43;;;9.57;;
62401;SDS011;48440;51.224;22.506;2022-09-27T07:54:46;10.82;;;9.68;;
62401;SDS011;48440;51.224;22.506;2022-09-27T07:57:12;10.15;;;8.82;;
62401;SDS011;48440;51.224;22.506;2022-09-27T07:59:39;10.38;;;8.55;;
62401;SDS011;48440;51.224;22.506;2022-09-27T08:02:05;9.57;;;7.93;;
62401;SDS011;48440;51.224;22.506;2022-09-27T08:04:31;10.30;;;8.45;;
62401;SDS011;48440;51.224;22.506;2022-09-27T08:06:56;9.60;;;8.18;;
62401;SDS011;48440;51.224;22.506;2022-09-27T08:09:22;8.27;;;7.43;;
62401;SDS011;48440;51.224;22.506;2022-09-27T08:11:50;8.27;;;7.45;;
62401;SDS011;48440;51.224;22.506;2022-09-27T08:14:16;8.75;;;7.32;;
62401;SDS011;48440;51.224;22.506;2022-09-27T08:16:42;7.75;;;6.43;;
62401;SDS011;48440;51.224;22.506;2022-09-27T08:19:08;6.97;;;6.28;;
62401;SDS011;48440;51.224;22.506;2022-09-27T08:21:35;7.03;;;6.32;;
62401;SDS011;48440;51.224;22.506;2022-09-27T08:24:00;7.90;;;7.07;;
62401;SDS011;48440;51.224;22.506;2022-09-27T08:26:26;8.40;;;7.22;;
62401;SDS011;48440;51.224;22.506;2022-09-27T08:28:52;9.25;;;7.65;;
62401;SDS011;48440;51.224;22.506;2022-09-27T08:31:18;9.40;;;7.75;;
62401;SDS011;48440;51.224;22.506;2022-09-27T08:33:48;8.80;;;7.07;;
62401;SDS011;48440;51.224;22.506;2022-09-27T08:36:15;10.00;;;7.93;;
62401;SDS011;48440;51.224;22.506;2022-09-27T08:38:41;8.00;;;6.80;;
62401;SDS011;48440;51.224;22.506;2022-09-27T08:41:08;8.80;;;7.00;;
62401;SDS011;48440;51.224;22.506;2022-09-27T08:46:12;8.32;;;7.40;;
62401;SDS011;48440;51.224;22.506;2022-09-27T08:48:39;7.22;;;6.15;;
62401;SDS011;48440;51.224;22.506;2022-09-27T08:51:09;7.72;;;6.78;;
62401;SDS011;48440;51.224;22.506;2022-09-27T08:53:41;7.25;;;6.55;;
62401;SDS011;48440;51.224;22.506;2022-09-27T08:56:15;7.75;;;6.80;;
62401;SDS011;48440;51.224;22.506;2022-09-27T09:01:26;7.50;;;6.25;;
62401;SDS011;48440;51.224;22.506;2022-09-27T09:03:52;7.22;;;6.25;;
62401;SDS011;48440;51.224;22.506;2022-09-27T09:06:30;7.90;;;7.10;;
62401;SDS011;48440;51.224;22.506;2022-09-27T09:23:19;6.15;;;5.32;;
62401;SDS011;48440;51.224;22.506;2022-09-27T09:34:45;7.05;;;5.88;;
62401;SDS011;48440;51.224;22.506;2022-09-27T09:37:31;8.35;;;5.68;;
62401;SDS011;48440;51.224;22.506;2022-09-27T09:42:48;6.82;;;6.13;;
62401;SDS011;48440;51.224;22.506;2022-09-27T09:45:27;7.88;;;6.18;;
62401;SDS011;48440;51.224;22.506;2022-09-27T09:48:02;7.55;;;6.28;;
62401;SDS011;48440;51.224;22.506;2022-09-27T09:50:44;8.25;;;6.60;;
62401;SDS011;48440;51.224;22.506;2022-09-27T09:53:25;8.70;;;6.47;;
62401;SDS011;48440;51.224;22.506;2022-09-27T09:56:15;7.75;;;6.85;;
62401;SDS011;48440;51.224;22.506;2022-09-27T10:03:43;7.70;;;6.25;;
62401;SDS011;48440;51.224;22.506;2022-09-27T10:06:10;8.60;;;6.95;;
62401;SDS011;48440;51.224;22.506;2022-09-27T10:08:37;8.25;;;6.30;;
62401;SDS011;48440;51.224;22.506;2022-09-27T10:11:03;7.60;;;6.32;;
62401;SDS011;48440;51.224;22.506;2022-09-27T10:13:29;9.25;;;6.60;;
62401;SDS011;48440;51.224;22.506;2022-09-27T10:16:07;7.57;;;6.47;;
62401;SDS011;48440;51.224;22.506;2022-09-27T10:18:36;8.20;;;6.50;;
62401;SDS011;48440;51.224;22.506;2022-09-27T10:21:05;7.97;;;6.28;;
62401;SDS011;48440;51.224;22.506;2022-09-27T10:23:36;8.30;;;7.05;;
62401;SDS011;48440;51.224;22.506;2022-09-27T10:26:35;7.70;;;6.32;;
62401;SDS011;48440;51.224;22.506;2022-09-27T10:29:15;7.88;;;6.30;;
62401;SDS011;48440;51.224;22.506;2022-09-27T10:31:44;7.00;;;6.00;;
62401;SDS011;48440;51.224;22.506;2022-09-27T10:39:36;9.45;;;6.50;;
62401;SDS011;48440;51.224;22.506;2022-09-27T10:42:18;7.82;;;6.10;;
62401;SDS011;48440;51.224;22.506;2022-09-27T10:44:54;7.50;;;6.10;;
62401;SDS011;48440;51.224;22.506;2022-09-27T10:47:21;6.88;;;6.07;;
62401;SDS011;48440;51.224;22.506;2022-09-27T10:49:49;7.25;;;6.43;;
62401;SDS011;48440;51.224;22.506;2022-09-27T10:57:24;8.65;;;7.03;;
62401;SDS011;48440;51.224;22.506;2022-09-27T10:59:56;9.45;;;7.78;;
62401;SDS011;48440;51.224;22.506;2022-09-27T11:02:34;9.68;;;7.50;;
62401;SDS011;48440;51.224;22.506;2022-09-27T11:07:38;9.07;;;7.40;;
62401;SDS011;48440;51.224;22.506;2022-09-27T11:10:21;10.18;;;7.72;;
62401;SDS011;48440;51.224;22.506;2022-09-27T11:13:04;8.20;;;7.22;;
62401;SDS011;48440;51.224;22.506;2022-09-27T11:15:31;10.60;;;8.00;;
62401;SDS011;48440;51.224;22.506;2022-09-27T11:18:27;10.05;;;7.78;;
62401;SDS011;48440;51.224;22.506;2022-09-27T11:24:02;8.10;;;7.15;;
62401;SDS011;48440;51.224;22.506;2022-09-27T11:29:23;8.80;;;7.13;;
62401;SDS011;48440;51.224;22.506;2022-09-27T11:37:06;8.90;;;6.97;;
62401;SDS011;48440;51.224;22.506;2022-09-27T11:42:57;8.98;;;6.90;;
62401;SDS011;48440;51.224;22.506;2022-09-27T11:51:22;8.50;;;6.82;;
62401;SDS011;48440;51.224;22.506;2022-09-27T11:57:08;8.35;;;6.88;;
62401;SDS011;48440;51.224;22.506;2022-09-27T12:10:48;9.32;;;7.07;;
62401;SDS011;48440;51.224;22.506;2022-09-27T12:13:23;7.97;;;7.18;;
62401;SDS011;48440;51.224;22.506;2022-09-27T12:18:32;8.13;;;6.72;;
62401;SDS011;48440;51.224;22.506;2022-09-27T12:21:03;7.90;;;6.78;;
62401;SDS011;48440;51.224;22.506;2022-09-27T12:23:39;10.68;;;7.82;;
62401;SDS011;48440;51.224;22.506;2022-09-27T12:26:12;10.32;;;7.43;;
62401;SDS011;48440;51.224;22.506;2022-09-27T12:29:01;10.07;;;7.07;;
62401;SDS011;48440;51.224;22.506;2022-09-27T12:31:41;8.93;;;6.78;;
62401;SDS011;48440;51.224;22.506;2022-09-27T12:34:42;9.35;;;7.20;;
62401;SDS011;48440;51.224;22.506;2022-09-27T12:37:25;8.88;;;6.55;;
62401;SDS011;48440;51.224;22.506;2022-09-27T12:42:40;7.18;;;6.28;;
62401;SDS011;48440;51.224;22.506;2022-09-27T12:45:13;8.23;;;7.07;;
62401;SDS011;48440;51.224;22.506;2022-09-27T12:50:27;8.55;;;6.35;;
62401;SDS011;48440;51.224;22.506;2022-09-27T12:53:08;8.35;;;6.60;;
62401;SDS011;48440;51.224;22.506;2022-09-27T12:55:47;10.25;;;8.02;;
62401;SDS011;48440;51.224;22.506;2022-09-27T13:06:22;9.35;;;6.55;;
62401;SDS011;48440;51.224;22.506;2022-09-27T13:09:11;8.57;;;6.75;;
62401;SDS011;48440;51.224;22.506;2022-09-27T13:14:19;6.53;;;5.88;;
62401;SDS011;48440;51.224;22.506;2022-09-27T13:16:48;6.93;;;6.00;;
62401;SDS011;48440;51.224;22.506;2022-09-27T13:19:35;7.07;;;5.72;;
62401;SDS011;48440;51.224;22.506;2022-09-27T13:22:05;7.68;;;6.25;;
62401;SDS011;48440;51.224;22.506;2022-09-27T13:30:42;8.07;;;6.30;;
62401;SDS011;48440;51.224;22.506;2022-09-27T13:32:37;7.90;;;6.22;;
62401;SDS011;48440;51.224;22.506;2022-09-27T13:35:20;6.68;;;5.57;;
62401;SDS011;48440;51.224;22.506;2022-09-27T13:37:52;7.35;;;6.05;;
62401;SDS011;48440;51.224;22.506;2022-09-27T13:40:35;9.88;;;6.57;;
62401;SDS011;48440;51.224;22.506;2022-09-27T13:45:40;6.63;;;5.45;;
62401;SDS011;48440;51.224;22.506;2022-09-27T13:54:00;6.30;;;5.55;;
62401;SDS011;48440;51.224;22.506;2022-09-27T13:59:02;9.27;;;6.07;;
62401;SDS011;48440;51.224;22.506;2022-09-27T14:01:34;8.73;;;6.03;;
62401;SDS011;48440;51.224;22.506;2022-09-27T14:04:05;7.90;;;6.15;;
62401;SDS011;48440;51.224;22.506;2022-09-27T14:06:42;8.48;;;6.57;;
62401;SDS011;48440;51.224;22.506;2022-09-27T14:09:16;7.53;;;5.45;;
62401;SDS011;48440;51.224;22.506;2022-09-27T14:11:47;6.60;;;5.43;;
62401;SDS011;48440;51.224;22.506;2022-09-27T14:14:18;7.03;;;5.60;;
62401;SDS011;48440;51.224;22.506;2022-09-27T14:16:48;7.82;;;6.10;;
62401;SDS011;48440;51.224;22.506;2022-09-27T14:19:14;9.32;;;5.68;;
62401;SDS011;48440;51.224;22.506;2022-09-27T14:21:50;7.93;;;6.20;;
62401;SDS011;48440;51.224;22.506;2022-09-27T14:26:45;8.57;;;5.65;;
62401;SDS011;48440;51.224;22.506;2022-09-27T14:29:15;7.90;;;6.20;;
62401;SDS011;48440;51.224;22.506;2022-09-27T14:31:43;6.60;;;5.60;;
62401;SDS011;48440;51.224;22.506;2022-09-27T14:34:09;7.45;;;5.82;;
62401;SDS011;48440;51.224;22.506;2022-09-27T14:36:36;9.82;;;6.93;;
62401;SDS011;48440;51.224;22.506;2022-09-27T14:39:22;10.20;;;7.40;;
62401;SDS011;48440;51.224;22.506;2022-09-27T14:41:53;9.23;;;6.85;;
62401;SDS011;48440;51.224;22.506;2022-09-27T14:44:19;9.40;;;6.65;;
62401;SDS011;48440;51.224;22.506;2022-09-27T14:46:45;8.00;;;6.05;;
62401;SDS011;48440;51.224;22.506;2022-09-27T14:49:18;7.95;;;5.82;;
62401;SDS011;48440;51.224;22.506;2022-09-27T14:51:50;7.90;;;6.00;;
62401;SDS011;48440;51.224;22.506;2022-09-27T14:54:21;9.98;;;7.25;;
62401;SDS011;48440;51.224;22.506;2022-09-27T14:56:50;8.85;;;6.30;;
62401;SDS011;48440;51.224;22.506;2022-09-27T14:59:22;6.47;;;5.65;;
62401;SDS011;48440;51.224;22.506;2022-09-27T15:01:54;8.77;;;5.97;;
62401;SDS011;48440;51.224;22.506;2022-09-27T15:04:24;7.25;;;5.75;;
62401;SDS011;48440;51.224;22.506;2022-09-27T15:06:51;7.60;;;5.90;;
62401;SDS011;48440;51.224;22.506;2022-09-27T15:09:17;8.07;;;5.78;;
62401;SDS011;48440;51.224;22.506;2022-09-27T15:11:43;6.55;;;5.50;;
62401;SDS011;48440;51.224;22.506;2022-09-27T15:14:12;6.38;;;5.38;;
62401;SDS011;48440;51.224;22.506;2022-09-27T15:16:40;7.32;;;5.60;;
62401;SDS011;48440;51.224;22.506;2022-09-27T15:19:13;9.18;;;5.95;;
62401;SDS011;48440;51.224;22.506;2022-09-27T15:21:43;7.88;;;5.68;;
62401;SDS011;48440;51.224;22.506;2022-09-27T15:27:24;7.85;;;6.28;;
62401;SDS011;48440;51.224;22.506;2022-09-27T15:29:51;7.63;;;5.80;;
62401;SDS011;48440;51.224;22.506;2022-09-27T15:32:19;9.70;;;6.47;;
62401;SDS011;48440;51.224;22.506;2022-09-27T15:34:47;8.80;;;6.47;;
62401;SDS011;48440;51.224;22.506;2022-09-27T15:42:59;11.02;;;7.15;;
62401;SDS011;48440;51.224;22.506;2022-09-27T15:45:29;8.05;;;6.22;;
62401;SDS011;48440;51.224;22.506;2022-09-27T15:48:11;8.63;;;6.18;;
62401;SDS011;48440;51.224;22.506;2022-09-27T15:50:39;10.10;;;7.13;;
62401;SDS011;48440;51.224;22.506;2022-09-27T15:53:05;9.25;;;6.80;;
62401;SDS011;48440;51.224;22.506;2022-09-27T15:55:33;11.30;;;6.60;;
62401;SDS011;48440;51.224;22.506;2022-09-27T15:58:04;11.52;;;7.03;;
62401;SDS011;48440;51.224;22.506;2022-09-27T16:00:49;10.95;;;8.15;;
62401;SDS011;48440;51.224;22.506;2022-09-27T16:05:59;9.77;;;6.78;;
62401;SDS011;48440;51.224;22.506;2022-09-27T16:08:37;10.82;;;7.70;;
62401;SDS011;48440;51.224;22.506;2022-09-27T16:11:11;8.98;;;7.10;;
62401;SDS011;48440;51.224;22.506;2022-09-27T16:13:43;10.23;;;7.40;;
62401;SDS011;48440;51.224;22.506;2022-09-27T16:16:13;13.52;;;7.35;;
62401;SDS011;48440;51.224;22.506;2022-09-27T16:18:41;10.80;;;7.75;;
62401;SDS011;48440;51.224;22.506;2022-09-27T16:21:08;12.15;;;8.30;;
62401;SDS011;48440;51.224;22.506;2022-09-27T16:23:34;11.23;;;8.30;;
62401;SDS011;48440;51.224;22.506;2022-09-27T16:26:05;14.20;;;9.05;;
62401;SDS011;48440;51.224;22.506;2022-09-27T16:28:32;13.55;;;8.55;;
62401;SDS011;48440;51.224;22.506;2022-09-27T16:31:01;15.40;;;9.13;;
62401;SDS011;48440;51.224;22.506;2022-09-27T16:33:29;14.82;;;9.13;;
62401;SDS011;48440;51.224;22.506;2022-09-27T16:35:56;14.63;;;8.65;;
62401;SDS011;48440;51.224;22.506;2022-09-27T16:38:24;14.10;;;9.43;;
62401;SDS011;48440;51.224;22.506;2022-09-27T16:40:51;14.82;;;9.50;;
62401;SDS011;48440;51.224;22.506;2022-09-27T16:43:17;13.38;;;9.68;;
62401;SDS011;48440;51.224;22.506;2022-09-27T16:45:44;13.18;;;9.15;;
62401;SDS011;48440;51.224;22.506;2022-09-27T16:48:09;14.38;;;9.52;;
62401;SDS011;48440;51.224;22.506;2022-09-27T16:50:35;16.77;;;10.35;;
62401;SDS011;48440;51.224;22.506;2022-09-27T16:53:19;13.93;;;10.18;;
62401;SDS011;48440;51.224;22.506;2022-09-27T16:55:44;17.15;;;9.30;;
62401;SDS011;48440;51.224;22.506;2022-09-27T16:58:10;15.07;;;10.13;;
62401;SDS011;48440;51.224;22.506;2022-09-27T17:00:35;17.77;;;9.52;;
62401;SDS011;48440;51.224;22.506;2022-09-27T17:03:01;14.60;;;10.13;;
62401;SDS011;48440;51.224;22.506;2022-09-27T17:05:26;16.30;;;10.10;;
62401;SDS011;48440;51.224;22.506;2022-09-27T17:07:52;14.65;;;10.27;;
62401;SDS011;48440;51.224;22.506;2022-09-27T17:10:18;14.75;;;10.18;;
62401;SDS011;48440;51.224;22.506;2022-09-27T17:12:45;15.50;;;11.13;;
62401;SDS011;48440;51.224;22.506;2022-09-27T17:15:11;15.70;;;10.60;;
62401;SDS011;48440;51.224;22.506;2022-09-27T17:17:37;18.13;;;10.82;;
62401;SDS011;48440;51.224;22.506;2022-09-27T17:20:03;17.33;;;11.40;;
62401;SDS011;48440;51.224;22.506;2022-09-27T17:22:29;15.95;;;11.43;;
62401;SDS011;48440;51.224;22.506;2022-09-27T17:24:54;19.08;;;12.63;;
62401;SDS011;48440;51.224;22.506;2022-09-27T17:27:21;19.98;;;12.95;;
62401;SDS011;48440;51.224;22.506;2022-09-27T17:29:47;18.70;;;12.85;;
62401;SDS011;48440;51.224;22.506;2022-09-27T17:32:14;19.48;;;12.77;;
62401;SDS011;48440;51.224;22.506;2022-09-27T17:34:39;22.05;;;12.38;;